OAL170 LGAV-LIRZ
Flight info
| Callsign | OAL170 |
|---|---|
| Flight time | 1h 54m |
| Altitude | 36000 |
| Route | KOR UL53 KRK UL995 TIGRA DCT KAPPO DCT DIVKU DCT PES DCT TUFTE DCT KATAR |
| Aircraft | B737/M-SDE2E3FGHIRWXY/LB1 |
Departure
| Time | 2026-05-07 13:20 |
|---|---|
| Airport | Athens Eleftherios Venizelos International Airport (LGAV) |
Arrival
| Time | 2026-05-07 15:14 |
|---|---|
| Airport | Perugia San Francesco d'Assisi – Umbria International Airport (LIRZ) |
| Time | Latitude | Longitude | Altitude | Speed | Heading |
|---|---|---|---|---|---|
| 2026-05-07 12:55 | 37.93912 | 23.95132 | 299 ft | 0 kts | 302° |
| 2026-05-07 13:10 | 37.93902 | 23.95151 | 301 ft | 4 kts | 308° |
| 2026-05-07 13:11 | 37.93884 | 23.95176 | 300 ft | 4 kts | 321° |
| 2026-05-07 13:11 | 37.93861 | 23.95193 | 301 ft | 4 kts | 349° |
| 2026-05-07 13:11 | 37.93841 | 23.95190 | 302 ft | 1 kts | 36° |
| 2026-05-07 13:14 | 37.93851 | 23.95211 | 301 ft | 9 kts | 58° |
| 2026-05-07 13:14 | 37.93880 | 23.95293 | 300 ft | 10 kts | 75° |
| 2026-05-07 13:14 | 37.93870 | 23.95378 | 300 ft | 10 kts | 119° |
| 2026-05-07 13:14 | 37.93863 | 23.95464 | 298 ft | 12 kts | 63° |
| 2026-05-07 13:15 | 37.93935 | 23.95550 | 299 ft | 17 kts | 36° |
| 2026-05-07 13:15 | 37.94047 | 23.95657 | 298 ft | 23 kts | 36° |
| 2026-05-07 13:15 | 37.94182 | 23.95785 | 296 ft | 25 kts | 37° |
| 2026-05-07 13:15 | 37.94321 | 23.95918 | 298 ft | 24 kts | 37° |
| 2026-05-07 13:16 | 37.94463 | 23.96052 | 298 ft | 26 kts | 37° |
| 2026-05-07 13:16 | 37.94599 | 23.96181 | 299 ft | 24 kts | 36° |
| 2026-05-07 13:16 | 37.94731 | 23.96305 | 301 ft | 26 kts | 36° |
| 2026-05-07 13:16 | 37.94876 | 23.96440 | 300 ft | 25 kts | 37° |
| 2026-05-07 13:17 | 37.95008 | 23.96571 | 302 ft | 23 kts | 37° |
| 2026-05-07 13:17 | 37.95141 | 23.96695 | 303 ft | 25 kts | 37° |
| 2026-05-07 13:17 | 37.95270 | 23.96818 | 303 ft | 18 kts | 37° |
| 2026-05-07 13:17 | 37.95288 | 23.96906 | 303 ft | 11 kts | 117° |
| 2026-05-07 13:18 | 37.95246 | 23.96986 | 307 ft | 11 kts | 129° |
| 2026-05-07 13:18 | 37.95167 | 23.96999 | 309 ft | 13 kts | 195° |
| 2026-05-07 13:18 | 37.95091 | 23.96947 | 307 ft | 12 kts | 214° |
| 2026-05-07 13:18 | 37.95048 | 23.96902 | 307 ft | 0 kts | 220° |
| 2026-05-07 13:19 | 37.95047 | 23.96901 | 307 ft | 3 kts | 224° |
| 2026-05-07 13:19 | 37.94954 | 23.96797 | 306 ft | 30 kts | 218° |
| 2026-05-07 13:19 | 37.94581 | 23.96442 | 294 ft | 110 kts | 217° |
| 2026-05-07 13:19 | 37.93781 | 23.95674 | 465 ft | 168 kts | 218° |
| 2026-05-07 13:20 | 37.92899 | 23.94775 | 1725 ft | 153 kts | 217° |
| 2026-05-07 13:20 | 37.92089 | 23.94032 | 2922 ft | 140 kts | 207° |
| 2026-05-07 13:20 | 37.91133 | 23.93541 | 3495 ft | 167 kts | 208° |
| 2026-05-07 13:20 | 37.89997 | 23.92746 | 3852 ft | 205 kts | 209° |
| 2026-05-07 13:21 | 37.88641 | 23.91836 | 4245 ft | 231 kts | 208° |
| 2026-05-07 13:21 | 37.87191 | 23.90874 | 4989 ft | 238 kts | 208° |
| 2026-05-07 13:21 | 37.85710 | 23.89886 | 5785 ft | 243 kts | 208° |
| 2026-05-07 13:21 | 37.84202 | 23.88879 | 6552 ft | 248 kts | 209° |
| 2026-05-07 13:22 | 37.82665 | 23.87853 | 7250 ft | 252 kts | 209° |
| 2026-05-07 13:22 | 37.81088 | 23.86795 | 7464 ft | 258 kts | 209° |
| 2026-05-07 13:22 | 37.79497 | 23.85728 | 7547 ft | 258 kts | 209° |
| 2026-05-07 13:22 | 37.77932 | 23.84681 | 7582 ft | 256 kts | 209° |
| 2026-05-07 13:23 | 37.76466 | 23.83424 | 7575 ft | 255 kts | 229° |
| 2026-05-07 13:23 | 37.75590 | 23.81492 | 7403 ft | 256 kts | 249° |
| 2026-05-07 13:23 | 37.75109 | 23.79344 | 7390 ft | 252 kts | 267° |
| 2026-05-07 13:23 | 37.75164 | 23.77140 | 7511 ft | 253 kts | 274° |
| 2026-05-07 13:24 | 37.75310 | 23.74882 | 7278 ft | 259 kts | 275° |
| 2026-05-07 13:24 | 37.75467 | 23.72621 | 7088 ft | 257 kts | 275° |
| 2026-05-07 13:24 | 37.75657 | 23.70387 | 6932 ft | 255 kts | 283° |
| 2026-05-07 13:24 | 37.76343 | 23.68369 | 6962 ft | 252 kts | 297° |
| 2026-05-07 13:25 | 37.77167 | 23.66358 | 7046 ft | 266 kts | 296° |
| 2026-05-07 13:25 | 37.78003 | 23.64198 | 7844 ft | 275 kts | 295° |
| 2026-05-07 13:25 | 37.78806 | 23.61992 | 8944 ft | 277 kts | 293° |
| 2026-05-07 13:25 | 37.79577 | 23.59752 | 10007 ft | 280 kts | 292° |
| 2026-05-07 13:26 | 37.80340 | 23.57436 | 10739 ft | 294 kts | 291° |
| 2026-05-07 13:26 | 37.81146 | 23.54909 | 10972 ft | 324 kts | 291° |
| 2026-05-07 13:26 | 37.82002 | 23.52151 | 11377 ft | 345 kts | 291° |
| 2026-05-07 13:26 | 37.82872 | 23.49298 | 12214 ft | 350 kts | 290° |
| 2026-05-07 13:27 | 37.83740 | 23.46416 | 13246 ft | 350 kts | 290° |
| 2026-05-07 13:27 | 37.84601 | 23.43535 | 14225 ft | 350 kts | 290° |
| 2026-05-07 13:27 | 37.85453 | 23.40663 | 15040 ft | 354 kts | 289° |
| 2026-05-07 13:27 | 37.86323 | 23.37721 | 15813 ft | 359 kts | 289° |
| 2026-05-07 13:28 | 37.87202 | 23.34742 | 16601 ft | 363 kts | 289° |
| 2026-05-07 13:28 | 37.88089 | 23.31729 | 17394 ft | 367 kts | 289° |
| 2026-05-07 13:28 | 37.88985 | 23.28681 | 18170 ft | 371 kts | 288° |
| 2026-05-07 13:28 | 37.89890 | 23.25597 | 18859 ft | 375 kts | 288° |
| 2026-05-07 13:29 | 37.90803 | 23.22483 | 19546 ft | 379 kts | 289° |
| 2026-05-07 13:29 | 37.91726 | 23.19336 | 20232 ft | 382 kts | 289° |
| 2026-05-07 13:29 | 37.92652 | 23.16172 | 20891 ft | 385 kts | 289° |
| 2026-05-07 13:29 | 37.93588 | 23.12969 | 21535 ft | 389 kts | 289° |
| 2026-05-07 13:30 | 37.94521 | 23.09774 | 22154 ft | 393 kts | 289° |
| 2026-05-07 13:30 | 37.95474 | 23.06508 | 22768 ft | 397 kts | 289° |
| 2026-05-07 13:30 | 37.96433 | 23.03217 | 23370 ft | 400 kts | 289° |
| 2026-05-07 13:30 | 37.97402 | 22.99885 | 23916 ft | 404 kts | 289° |
| 2026-05-07 13:31 | 37.98373 | 22.96545 | 24060 ft | 401 kts | 289° |
| 2026-05-07 13:31 | 37.99336 | 22.93225 | 24094 ft | 403 kts | 289° |
| 2026-05-07 13:31 | 38.00307 | 22.89876 | 24099 ft | 404 kts | 289° |
| 2026-05-07 13:31 | 38.01274 | 22.86535 | 24094 ft | 403 kts | 289° |
| 2026-05-07 13:32 | 38.02240 | 22.83196 | 24111 ft | 402 kts | 289° |
| 2026-05-07 13:32 | 38.03314 | 22.79964 | 24101 ft | 404 kts | 296° |
| 2026-05-07 13:32 | 38.04839 | 22.76933 | 24310 ft | 411 kts | 304° |
| 2026-05-07 13:32 | 38.06526 | 22.73993 | 24933 ft | 410 kts | 304° |
| 2026-05-07 13:33 | 38.08200 | 22.71073 | 25626 ft | 407 kts | 304° |
| 2026-05-07 13:33 | 38.09861 | 22.68162 | 26209 ft | 407 kts | 303° |
| 2026-05-07 13:33 | 38.11521 | 22.65235 | 26714 ft | 409 kts | 303° |
| 2026-05-07 13:33 | 38.13164 | 22.62326 | 27186 ft | 411 kts | 303° |
| 2026-05-07 13:34 | 38.14828 | 22.59369 | 27668 ft | 412 kts | 303° |
| 2026-05-07 13:34 | 38.18167 | 22.53419 | 28624 ft | 415 kts | 303° |
| 2026-05-07 13:34 | 38.19842 | 22.50426 | 29085 ft | 416 kts | 303° |
| 2026-05-07 13:35 | 38.21519 | 22.47430 | 29594 ft | 415 kts | 302° |
| 2026-05-07 13:35 | 38.23185 | 22.44450 | 30255 ft | 410 kts | 302° |
| 2026-05-07 13:35 | 38.24829 | 22.41509 | 30894 ft | 404 kts | 302° |
| 2026-05-07 13:35 | 38.26448 | 22.38610 | 31552 ft | 398 kts | 302° |
| 2026-05-07 13:36 | 38.28038 | 22.35759 | 32160 ft | 392 kts | 302° |
| 2026-05-07 13:36 | 38.29588 | 22.32978 | 32715 ft | 388 kts | 302° |
| 2026-05-07 13:36 | 38.31141 | 22.30186 | 33247 ft | 384 kts | 302° |
| 2026-05-07 13:36 | 38.32678 | 22.27422 | 33787 ft | 380 kts | 302° |
| 2026-05-07 13:37 | 38.34198 | 22.24685 | 34300 ft | 375 kts | 302° |
| 2026-05-07 13:37 | 38.35703 | 22.21972 | 34733 ft | 372 kts | 302° |
| 2026-05-07 13:37 | 38.37188 | 22.19295 | 35109 ft | 369 kts | 302° |
| 2026-05-07 13:37 | 38.38614 | 22.16721 | 35339 ft | 370 kts | 302° |
| 2026-05-07 13:38 | 38.40097 | 22.14038 | 35563 ft | 370 kts | 302° |
| 2026-05-07 13:38 | 38.41564 | 22.11386 | 35838 ft | 370 kts | 302° |
| 2026-05-07 13:38 | 38.43046 | 22.08705 | 36105 ft | 370 kts | 302° |
| 2026-05-07 13:39 | 38.46017 | 22.03323 | 36104 ft | 370 kts | 302° |
| 2026-05-07 13:39 | 38.48975 | 21.97956 | 36105 ft | 368 kts | 302° |
| 2026-05-07 13:40 | 38.51901 | 21.92639 | 36106 ft | 367 kts | 302° |
| 2026-05-07 13:40 | 38.54837 | 21.87297 | 36113 ft | 367 kts | 302° |
| 2026-05-07 13:41 | 38.57770 | 21.81945 | 36107 ft | 367 kts | 302° |
| 2026-05-07 13:41 | 38.60701 | 21.76591 | 36079 ft | 369 kts | 302° |
| 2026-05-07 13:42 | 38.63643 | 21.71210 | 36099 ft | 369 kts | 302° |
| 2026-05-07 13:42 | 38.66580 | 21.65818 | 36103 ft | 368 kts | 302° |
| 2026-05-07 13:43 | 38.69500 | 21.60467 | 36106 ft | 365 kts | 302° |
| 2026-05-07 13:43 | 38.72360 | 21.55208 | 36054 ft | 361 kts | 301° |
| 2026-05-07 13:44 | 38.75229 | 21.49922 | 36079 ft | 361 kts | 302° |
| 2026-05-07 13:44 | 38.78096 | 21.44643 | 36087 ft | 360 kts | 302° |
| 2026-05-07 13:45 | 38.80941 | 21.39390 | 36092 ft | 361 kts | 302° |
| 2026-05-07 13:45 | 38.83817 | 21.34069 | 36088 ft | 364 kts | 302° |
| 2026-05-07 13:46 | 38.86707 | 21.28712 | 36089 ft | 365 kts | 302° |
| 2026-05-07 13:46 | 38.89585 | 21.23369 | 36091 ft | 367 kts | 302° |
| 2026-05-07 13:47 | 38.92499 | 21.17950 | 36086 ft | 369 kts | 301° |
| 2026-05-07 13:47 | 38.95416 | 21.12517 | 36086 ft | 369 kts | 301° |
| 2026-05-07 13:48 | 38.98321 | 21.07099 | 36089 ft | 367 kts | 301° |
| 2026-05-07 13:48 | 39.01211 | 21.01698 | 36092 ft | 365 kts | 301° |
| 2026-05-07 13:49 | 39.04065 | 20.96355 | 36094 ft | 364 kts | 301° |
| 2026-05-07 13:49 | 39.06926 | 20.90990 | 36097 ft | 363 kts | 301° |
| 2026-05-07 13:50 | 39.09780 | 20.85630 | 36094 ft | 362 kts | 301° |
| 2026-05-07 13:50 | 39.12625 | 20.80279 | 36098 ft | 362 kts | 301° |
| 2026-05-07 13:51 | 39.14989 | 20.75823 | 36093 ft | 362 kts | 301° |
| 2026-05-07 13:51 | 39.17828 | 20.70464 | 36091 ft | 362 kts | 301° |
| 2026-05-07 13:52 | 39.20667 | 20.65097 | 36088 ft | 362 kts | 301° |
| 2026-05-07 13:52 | 39.23496 | 20.59740 | 36070 ft | 364 kts | 301° |
| 2026-05-07 13:53 | 39.26343 | 20.54340 | 36071 ft | 363 kts | 301° |
| 2026-05-07 13:53 | 39.29180 | 20.48951 | 36071 ft | 362 kts | 301° |
| 2026-05-07 13:54 | 39.31988 | 20.43606 | 36064 ft | 361 kts | 301° |
| 2026-05-07 13:54 | 39.34805 | 20.38236 | 36078 ft | 360 kts | 301° |
| 2026-05-07 13:55 | 39.37620 | 20.32860 | 36067 ft | 361 kts | 301° |
| 2026-05-07 13:55 | 39.40438 | 20.27470 | 36077 ft | 362 kts | 301° |
| 2026-05-07 13:56 | 39.43140 | 20.22294 | 36067 ft | 363 kts | 301° |
| 2026-05-07 13:56 | 39.45949 | 20.16903 | 36069 ft | 363 kts | 300° |
| 2026-05-07 13:57 | 39.48769 | 20.11482 | 36073 ft | 363 kts | 300° |
| 2026-05-07 13:57 | 39.51590 | 20.06050 | 36075 ft | 363 kts | 300° |
| 2026-05-07 13:58 | 39.54406 | 20.00619 | 36077 ft | 362 kts | 300° |
| 2026-05-07 13:58 | 39.57209 | 19.95202 | 36075 ft | 362 kts | 300° |
| 2026-05-07 13:59 | 39.59992 | 19.89815 | 36074 ft | 361 kts | 300° |
| 2026-05-07 13:59 | 39.62786 | 19.84398 | 36082 ft | 361 kts | 300° |
| 2026-05-07 14:00 | 39.65582 | 19.78967 | 36070 ft | 362 kts | 300° |
| 2026-05-07 14:00 | 39.68372 | 19.73540 | 36074 ft | 361 kts | 300° |
| 2026-05-07 14:01 | 39.71143 | 19.68140 | 36070 ft | 361 kts | 300° |
| 2026-05-07 14:01 | 39.73929 | 19.62702 | 36077 ft | 361 kts | 300° |
| 2026-05-07 14:02 | 39.76708 | 19.57266 | 36061 ft | 361 kts | 300° |
| 2026-05-07 14:02 | 39.79489 | 19.51818 | 36063 ft | 361 kts | 300° |
| 2026-05-07 14:03 | 39.82252 | 19.46396 | 36060 ft | 361 kts | 299° |
| 2026-05-07 14:03 | 39.85028 | 19.40940 | 36065 ft | 362 kts | 299° |
| 2026-05-07 14:04 | 39.87806 | 19.35469 | 36073 ft | 362 kts | 299° |
| 2026-05-07 14:04 | 39.90568 | 19.30020 | 36062 ft | 363 kts | 299° |
| 2026-05-07 14:05 | 39.93350 | 19.24525 | 36060 ft | 363 kts | 299° |
| 2026-05-07 14:05 | 39.96134 | 19.19014 | 36062 ft | 364 kts | 299° |
| 2026-05-07 14:06 | 39.98914 | 19.13501 | 36060 ft | 364 kts | 299° |
| 2026-05-07 14:06 | 40.01695 | 19.07976 | 36061 ft | 364 kts | 299° |
| 2026-05-07 14:07 | 40.04462 | 19.02472 | 36063 ft | 365 kts | 299° |
| 2026-05-07 14:07 | 40.07331 | 18.96991 | 36061 ft | 366 kts | 301° |
| 2026-05-07 14:08 | 40.10375 | 18.91621 | 36059 ft | 367 kts | 301° |
| 2026-05-07 14:08 | 40.13402 | 18.86298 | 36062 ft | 367 kts | 301° |
| 2026-05-07 14:09 | 40.16434 | 18.80928 | 36059 ft | 367 kts | 301° |
| 2026-05-07 14:09 | 40.19402 | 18.75643 | 36065 ft | 367 kts | 301° |
| 2026-05-07 14:10 | 40.22419 | 18.70253 | 36067 ft | 367 kts | 301° |
| 2026-05-07 14:10 | 40.25435 | 18.64855 | 36067 ft | 367 kts | 301° |
| 2026-05-07 14:11 | 40.28431 | 18.59483 | 36061 ft | 367 kts | 301° |
| 2026-05-07 14:11 | 40.31441 | 18.54078 | 36059 ft | 367 kts | 300° |
| 2026-05-07 14:12 | 40.34457 | 18.48652 | 36061 ft | 367 kts | 300° |
| 2026-05-07 14:12 | 40.37468 | 18.43225 | 36051 ft | 368 kts | 300° |
| 2026-05-07 14:13 | 40.40461 | 18.37822 | 36058 ft | 368 kts | 300° |
| 2026-05-07 14:13 | 40.43472 | 18.32376 | 36055 ft | 369 kts | 300° |
| 2026-05-07 14:14 | 40.46489 | 18.26910 | 36056 ft | 369 kts | 300° |
| 2026-05-07 14:14 | 40.49484 | 18.21476 | 36054 ft | 370 kts | 300° |
| 2026-05-07 14:15 | 40.52502 | 18.15988 | 36051 ft | 370 kts | 300° |
| 2026-05-07 14:15 | 40.55518 | 18.10494 | 36050 ft | 371 kts | 300° |
| 2026-05-07 14:16 | 40.58547 | 18.04970 | 36053 ft | 371 kts | 300° |
| 2026-05-07 14:16 | 40.61494 | 17.99439 | 36050 ft | 369 kts | 296° |
| 2026-05-07 14:17 | 40.64019 | 17.93560 | 36046 ft | 369 kts | 294° |
| 2026-05-07 14:17 | 40.66509 | 17.87630 | 36049 ft | 370 kts | 294° |
| 2026-05-07 14:18 | 40.69006 | 17.81694 | 36051 ft | 370 kts | 294° |
| 2026-05-07 14:18 | 40.71511 | 17.75753 | 36048 ft | 371 kts | 294° |
| 2026-05-07 14:19 | 40.74016 | 17.69808 | 36044 ft | 371 kts | 294° |
| 2026-05-07 14:19 | 40.76509 | 17.63887 | 36045 ft | 371 kts | 294° |
| 2026-05-07 14:20 | 40.79014 | 17.57924 | 36042 ft | 371 kts | 294° |
| 2026-05-07 14:20 | 40.81518 | 17.51953 | 36039 ft | 371 kts | 294° |
| 2026-05-07 14:21 | 40.84017 | 17.45979 | 36039 ft | 372 kts | 294° |
| 2026-05-07 14:21 | 40.86501 | 17.40031 | 36036 ft | 372 kts | 294° |
| 2026-05-07 14:22 | 40.89000 | 17.34037 | 36032 ft | 372 kts | 294° |
| 2026-05-07 14:22 | 40.91495 | 17.28036 | 36029 ft | 373 kts | 294° |
| 2026-05-07 14:23 | 40.93995 | 17.22016 | 36028 ft | 373 kts | 294° |
| 2026-05-07 14:23 | 40.96476 | 17.16026 | 36031 ft | 374 kts | 293° |
| 2026-05-07 14:24 | 40.98976 | 17.09981 | 36028 ft | 375 kts | 293° |
| 2026-05-07 14:24 | 41.01477 | 17.03917 | 36023 ft | 375 kts | 293° |
| 2026-05-07 14:25 | 41.03981 | 16.97837 | 36015 ft | 376 kts | 293° |
| 2026-05-07 14:25 | 41.06487 | 16.91740 | 36015 ft | 376 kts | 293° |
| 2026-05-07 14:26 | 41.08989 | 16.85641 | 35994 ft | 376 kts | 293° |
| 2026-05-07 14:26 | 41.11471 | 16.79575 | 35994 ft | 376 kts | 293° |
| 2026-05-07 14:27 | 41.13970 | 16.73456 | 35994 ft | 376 kts | 293° |
| 2026-05-07 14:27 | 41.16463 | 16.67341 | 35994 ft | 377 kts | 293° |
| 2026-05-07 14:28 | 41.18908 | 16.61330 | 35997 ft | 377 kts | 293° |
| 2026-05-07 14:28 | 41.21380 | 16.55239 | 36000 ft | 377 kts | 293° |
| 2026-05-07 14:29 | 41.23817 | 16.49225 | 35999 ft | 377 kts | 293° |
| 2026-05-07 14:29 | 41.26303 | 16.43074 | 36001 ft | 377 kts | 292° |
| 2026-05-07 14:30 | 41.28789 | 16.36913 | 36002 ft | 378 kts | 292° |
| 2026-05-07 14:30 | 41.31253 | 16.30793 | 36000 ft | 378 kts | 292° |
| 2026-05-07 14:31 | 41.33736 | 16.24610 | 35993 ft | 378 kts | 292° |
| 2026-05-07 14:31 | 41.36218 | 16.18422 | 36002 ft | 379 kts | 292° |
| 2026-05-07 14:32 | 41.38698 | 16.12220 | 35995 ft | 379 kts | 292° |
| 2026-05-07 14:32 | 41.41166 | 16.06038 | 35994 ft | 380 kts | 292° |
| 2026-05-07 14:33 | 41.43649 | 15.99805 | 35997 ft | 380 kts | 292° |
| 2026-05-07 14:33 | 41.46129 | 15.93567 | 35999 ft | 381 kts | 292° |
| 2026-05-07 14:34 | 41.48607 | 15.87322 | 35995 ft | 381 kts | 292° |
| 2026-05-07 14:34 | 41.51399 | 15.81272 | 35997 ft | 388 kts | 301° |
| 2026-05-07 14:35 | 41.54698 | 15.75622 | 35998 ft | 388 kts | 301° |
| 2026-05-07 14:35 | 41.58027 | 15.69936 | 35996 ft | 388 kts | 301° |
| 2026-05-07 14:36 | 41.61342 | 15.64232 | 35995 ft | 388 kts | 301° |
| 2026-05-07 14:36 | 41.64645 | 15.58516 | 35995 ft | 388 kts | 301° |
| 2026-05-07 14:37 | 41.67950 | 15.52782 | 35995 ft | 389 kts | 301° |
| 2026-05-07 14:37 | 41.72879 | 15.44205 | 35996 ft | 390 kts | 300° |
| 2026-05-07 14:38 | 41.76185 | 15.38439 | 35999 ft | 390 kts | 300° |
| 2026-05-07 14:38 | 41.79498 | 15.32650 | 35998 ft | 391 kts | 300° |
| 2026-05-07 14:39 | 41.82812 | 15.26847 | 35998 ft | 392 kts | 300° |
| 2026-05-07 14:39 | 41.86129 | 15.21031 | 35999 ft | 393 kts | 300° |
| 2026-05-07 14:40 | 41.89428 | 15.15233 | 36002 ft | 393 kts | 300° |
| 2026-05-07 14:40 | 41.92752 | 15.09381 | 36000 ft | 394 kts | 300° |
| 2026-05-07 14:41 | 41.96074 | 15.03521 | 36005 ft | 394 kts | 300° |
| 2026-05-07 14:41 | 41.99399 | 14.97644 | 35999 ft | 395 kts | 300° |
| 2026-05-07 14:42 | 42.02161 | 14.92752 | 36000 ft | 395 kts | 300° |
| 2026-05-07 14:42 | 42.05489 | 14.86849 | 36005 ft | 395 kts | 300° |
| 2026-05-07 14:43 | 42.08810 | 14.80947 | 36007 ft | 396 kts | 300° |
| 2026-05-07 14:43 | 42.12130 | 14.75034 | 36010 ft | 396 kts | 300° |
| 2026-05-07 14:44 | 42.15437 | 14.69133 | 36009 ft | 396 kts | 300° |
| 2026-05-07 14:44 | 42.18756 | 14.63199 | 36005 ft | 396 kts | 300° |
| 2026-05-07 14:45 | 42.22083 | 14.57239 | 35998 ft | 397 kts | 300° |
| 2026-05-07 14:45 | 42.25387 | 14.51309 | 36008 ft | 397 kts | 300° |
| 2026-05-07 14:46 | 42.28710 | 14.45332 | 36026 ft | 397 kts | 300° |
| 2026-05-07 14:46 | 42.32033 | 14.39343 | 36019 ft | 398 kts | 300° |
| 2026-05-07 14:47 | 42.35341 | 14.33369 | 36020 ft | 399 kts | 300° |
| 2026-05-07 14:47 | 42.38674 | 14.27338 | 36027 ft | 400 kts | 300° |
| 2026-05-07 14:48 | 42.42014 | 14.21284 | 36028 ft | 401 kts | 300° |
| 2026-05-07 14:48 | 42.44898 | 14.14911 | 36031 ft | 394 kts | 290° |
| 2026-05-07 14:49 | 42.47221 | 14.08169 | 36024 ft | 395 kts | 289° |
| 2026-05-07 14:49 | 42.49532 | 14.01453 | 36022 ft | 396 kts | 290° |
| 2026-05-07 14:50 | 42.51890 | 13.94638 | 35369 ft | 404 kts | 290° |
| 2026-05-07 14:50 | 42.53084 | 13.91193 | 34672 ft | 403 kts | 290° |
| 2026-05-07 14:50 | 42.54282 | 13.87742 | 33920 ft | 403 kts | 290° |
| 2026-05-07 14:51 | 42.55475 | 13.84299 | 33140 ft | 402 kts | 290° |
| 2026-05-07 14:51 | 42.56643 | 13.80932 | 32587 ft | 396 kts | 290° |
| 2026-05-07 14:51 | 42.57808 | 13.77567 | 32028 ft | 391 kts | 290° |
| 2026-05-07 14:51 | 42.58957 | 13.74241 | 31471 ft | 386 kts | 290° |
| 2026-05-07 14:52 | 42.60088 | 13.70957 | 30929 ft | 382 kts | 290° |
| 2026-05-07 14:52 | 42.61208 | 13.67702 | 30397 ft | 378 kts | 289° |
| 2026-05-07 14:52 | 42.62314 | 13.64485 | 29851 ft | 374 kts | 290° |
| 2026-05-07 14:52 | 42.63409 | 13.61293 | 29270 ft | 369 kts | 289° |
| 2026-05-07 14:53 | 42.64487 | 13.58149 | 28721 ft | 364 kts | 289° |
| 2026-05-07 14:53 | 42.65551 | 13.55045 | 28178 ft | 360 kts | 289° |
| 2026-05-07 14:53 | 42.66602 | 13.51973 | 27646 ft | 357 kts | 289° |
| 2026-05-07 14:53 | 42.67646 | 13.48921 | 27113 ft | 353 kts | 289° |
| 2026-05-07 14:54 | 42.68721 | 13.45972 | 26584 ft | 354 kts | 294° |
| 2026-05-07 14:54 | 42.70018 | 13.43129 | 26074 ft | 353 kts | 296° |
| 2026-05-07 14:54 | 42.71351 | 13.40322 | 25548 ft | 352 kts | 297° |
| 2026-05-07 14:54 | 42.72683 | 13.37537 | 25043 ft | 350 kts | 297° |
| 2026-05-07 14:55 | 42.74007 | 13.34762 | 24528 ft | 349 kts | 297° |
| 2026-05-07 14:55 | 42.75323 | 13.31991 | 24011 ft | 347 kts | 297° |
| 2026-05-07 14:55 | 42.76611 | 13.29267 | 23489 ft | 346 kts | 297° |
| 2026-05-07 14:55 | 42.77914 | 13.26502 | 22901 ft | 346 kts | 297° |
| 2026-05-07 14:56 | 42.79207 | 13.23750 | 22350 ft | 344 kts | 297° |
| 2026-05-07 14:56 | 42.80489 | 13.21008 | 21816 ft | 342 kts | 297° |
| 2026-05-07 14:56 | 42.81764 | 13.18289 | 21310 ft | 339 kts | 297° |
| 2026-05-07 14:56 | 42.83027 | 13.15595 | 20798 ft | 336 kts | 298° |
| 2026-05-07 14:57 | 42.84279 | 13.12922 | 20312 ft | 333 kts | 298° |
| 2026-05-07 14:57 | 42.85522 | 13.10260 | 19809 ft | 332 kts | 298° |
| 2026-05-07 14:57 | 42.86760 | 13.07607 | 19306 ft | 332 kts | 298° |
| 2026-05-07 14:57 | 42.87997 | 13.04953 | 18812 ft | 331 kts | 298° |
| 2026-05-07 14:58 | 42.89231 | 13.02302 | 18299 ft | 331 kts | 298° |
| 2026-05-07 14:58 | 42.90464 | 12.99653 | 17724 ft | 331 kts | 299° |
| 2026-05-07 14:58 | 42.91695 | 12.97006 | 17178 ft | 329 kts | 299° |
| 2026-05-07 14:58 | 42.92900 | 12.94412 | 16663 ft | 327 kts | 299° |
| 2026-05-07 14:59 | 42.94117 | 12.91792 | 16160 ft | 325 kts | 299° |
| 2026-05-07 14:59 | 42.95325 | 12.89187 | 15646 ft | 323 kts | 299° |
| 2026-05-07 14:59 | 42.96524 | 12.86599 | 15161 ft | 321 kts | 299° |
| 2026-05-07 14:59 | 42.97717 | 12.84022 | 14665 ft | 320 kts | 299° |
| 2026-05-07 15:00 | 42.98901 | 12.81462 | 14167 ft | 318 kts | 299° |
| 2026-05-07 15:00 | 43.00085 | 12.78899 | 13664 ft | 317 kts | 299° |
| 2026-05-07 15:00 | 43.01243 | 12.76390 | 13127 ft | 315 kts | 299° |
| 2026-05-07 15:00 | 43.02411 | 12.73860 | 12598 ft | 314 kts | 299° |
| 2026-05-07 15:01 | 43.03559 | 12.71370 | 12407 ft | 302 kts | 299° |
| 2026-05-07 15:01 | 43.04657 | 12.68991 | 12227 ft | 290 kts | 299° |
| 2026-05-07 15:01 | 43.05647 | 12.66642 | 11854 ft | 284 kts | 292° |
| 2026-05-07 15:01 | 43.06394 | 12.64144 | 11472 ft | 282 kts | 289° |
| 2026-05-07 15:02 | 43.07092 | 12.61657 | 11249 ft | 273 kts | 289° |
| 2026-05-07 15:02 | 43.07769 | 12.59309 | 11105 ft | 258 kts | 289° |
| 2026-05-07 15:02 | 43.08424 | 12.57082 | 10979 ft | 247 kts | 290° |
| 2026-05-07 15:02 | 43.09050 | 12.54962 | 10876 ft | 238 kts | 287° |
| 2026-05-07 15:03 | 43.09228 | 12.52797 | 10755 ft | 225 kts | 258° |
| 2026-05-07 15:03 | 43.08652 | 12.50860 | 10560 ft | 219 kts | 235° |
| 2026-05-07 15:03 | 43.07582 | 12.49417 | 10337 ft | 217 kts | 214° |
| 2026-05-07 15:03 | 43.06267 | 12.48412 | 10102 ft | 215 kts | 208° |
| 2026-05-07 15:04 | 43.04955 | 12.47524 | 9882 ft | 210 kts | 207° |
| 2026-05-07 15:04 | 43.03652 | 12.46652 | 9588 ft | 206 kts | 207° |
| 2026-05-07 15:04 | 43.02388 | 12.45803 | 9333 ft | 200 kts | 207° |
| 2026-05-07 15:04 | 43.01231 | 12.45022 | 9092 ft | 198 kts | 208° |
| 2026-05-07 15:05 | 43.00041 | 12.44215 | 8869 ft | 198 kts | 207° |
| 2026-05-07 15:05 | 42.98837 | 12.43398 | 8636 ft | 197 kts | 207° |
| 2026-05-07 15:05 | 42.97606 | 12.42560 | 8405 ft | 197 kts | 207° |
| 2026-05-07 15:05 | 42.96381 | 12.41722 | 8165 ft | 197 kts | 207° |
| 2026-05-07 15:06 | 42.95159 | 12.40885 | 7937 ft | 196 kts | 207° |
| 2026-05-07 15:06 | 42.93933 | 12.40047 | 7699 ft | 197 kts | 207° |
| 2026-05-07 15:06 | 42.92709 | 12.39208 | 7456 ft | 197 kts | 207° |
| 2026-05-07 15:06 | 42.91478 | 12.38366 | 7220 ft | 198 kts | 207° |
| 2026-05-07 15:07 | 42.90266 | 12.37538 | 6980 ft | 197 kts | 207° |
| 2026-05-07 15:07 | 42.89039 | 12.36700 | 6751 ft | 196 kts | 207° |
| 2026-05-07 15:07 | 42.87808 | 12.35894 | 6520 ft | 196 kts | 200° |
| 2026-05-07 15:07 | 42.86458 | 12.35716 | 6283 ft | 197 kts | 171° |
| 2026-05-07 15:08 | 42.85207 | 12.36441 | 6052 ft | 197 kts | 143° |
| 2026-05-07 15:08 | 42.84347 | 12.37886 | 5815 ft | 199 kts | 115° |
| 2026-05-07 15:08 | 42.84093 | 12.39726 | 5590 ft | 200 kts | 85° |
| 2026-05-07 15:08 | 42.84674 | 12.41365 | 5337 ft | 198 kts | 38° |
| 2026-05-07 15:09 | 42.85853 | 12.42263 | 5148 ft | 191 kts | 25° |
| 2026-05-07 15:09 | 42.87047 | 12.43005 | 4912 ft | 185 kts | 21° |
| 2026-05-07 15:09 | 42.88230 | 12.43661 | 4670 ft | 182 kts | 20° |
| 2026-05-07 15:09 | 42.89432 | 12.44236 | 4468 ft | 184 kts | 16° |
| 2026-05-07 15:10 | 42.90665 | 12.44719 | 4252 ft | 186 kts | 14° |
| 2026-05-07 15:10 | 42.91916 | 12.45168 | 4041 ft | 185 kts | 13° |
| 2026-05-07 15:10 | 42.93146 | 12.45598 | 3826 ft | 180 kts | 13° |
| 2026-05-07 15:10 | 42.94349 | 12.46016 | 3609 ft | 176 kts | 13° |
| 2026-05-07 15:11 | 42.95525 | 12.46425 | 3400 ft | 171 kts | 13° |
| 2026-05-07 15:11 | 42.96656 | 12.46817 | 3195 ft | 164 kts | 13° |
| 2026-05-07 15:11 | 42.97742 | 12.47195 | 3037 ft | 164 kts | 13° |
| 2026-05-07 15:11 | 42.98837 | 12.47576 | 2845 ft | 161 kts | 13° |
| 2026-05-07 15:12 | 42.99880 | 12.47946 | 2823 ft | 149 kts | 15° |
| 2026-05-07 15:12 | 43.00900 | 12.48300 | 2629 ft | 153 kts | 12° |
| 2026-05-07 15:12 | 43.01940 | 12.48645 | 2410 ft | 156 kts | 14° |
| 2026-05-07 15:12 | 43.02990 | 12.49038 | 2133 ft | 155 kts | 12° |
| 2026-05-07 15:13 | 43.04037 | 12.49395 | 1812 ft | 153 kts | 12° |
| 2026-05-07 15:13 | 43.05065 | 12.49732 | 1558 ft | 152 kts | 12° |
| 2026-05-07 15:13 | 43.06099 | 12.50090 | 1313 ft | 153 kts | 12° |
| 2026-05-07 15:13 | 43.07124 | 12.50451 | 1082 ft | 156 kts | 12° |
| 2026-05-07 15:14 | 43.08172 | 12.50822 | 868 ft | 155 kts | 13° |
| 2026-05-07 15:14 | 43.09210 | 12.51191 | 693 ft | 151 kts | 12° |
| 2026-05-07 15:14 | 43.10179 | 12.51524 | 692 ft | 129 kts | 14° |
| 2026-05-07 15:14 | 43.10674 | 12.51694 | 702 ft | 19 kts | 14° |
| 2026-05-07 15:15 | 43.10765 | 12.51641 | 699 ft | 15 kts | 291° |
| 2026-05-07 15:15 | 43.10760 | 12.51513 | 696 ft | 14 kts | 226° |
| 2026-05-07 15:15 | 43.10670 | 12.51469 | 703 ft | 14 kts | 194° |
| 2026-05-07 15:15 | 43.10624 | 12.51453 | 697 ft | 0 kts | 194° |
| 2026-05-07 15:16 | 43.10607 | 12.51447 | 700 ft | 6 kts | 194° |
| 2026-05-07 15:16 | 43.10539 | 12.51422 | 703 ft | 30 kts | 195° |
| 2026-05-07 15:16 | 43.10315 | 12.51344 | 701 ft | 33 kts | 193° |
| 2026-05-07 15:16 | 43.10095 | 12.51269 | 690 ft | 32 kts | 194° |
| 2026-05-07 15:17 | 43.09879 | 12.51192 | 689 ft | 32 kts | 195° |
| 2026-05-07 15:17 | 43.09764 | 12.51125 | 686 ft | 15 kts | 231° |
| 2026-05-07 15:17 | 43.09694 | 12.50928 | 686 ft | 27 kts | 245° |
| 2026-05-07 15:17 | 43.09620 | 12.50704 | 687 ft | 25 kts | 246° |
| 2026-05-07 15:18 | 43.09551 | 12.50497 | 681 ft | 21 kts | 239° |
| 2026-05-07 15:18 | 43.09520 | 12.50401 | 683 ft | 0 kts | 248° |